Terminal Aerodrome Forecast
Issued by NWS

Home | Current Version | Previous Version | Text Only | Print | Product List | Glossary On
Versions: 1 2 3 4 5 6 7 8 9 10 11 12 13 14 15 16 17 18 19 20 21 22 23 24 25 26 27
927
FTUS43 KDLH 260657 AAA
TAFHYR
TAF AMD
KHYR 260657Z 2607/2706 05010G20KT P6SM RA OVC008
     FM261200 04011G20KT 6SM RA BR OVC008
     FM261500 04012G22KT 1 1/2SM -RA OVC003
     FM261600 03012G21KT 3SM -RA OVC008
     FM261800 02012G20KT P6SM VCSH OVC008
     FM270000 01008KT P6SM OVC008=

USA.gov is the U.S. government's official web portal to all federal, state and local government web resources and services.